Weather observations for the past three days for
Halifax-Northampton Regional Airport
Metric (Imperial)
Date Time (edt) Wind (kph) Vis. (km) Weather Sky Cond. Temperature (ºC) Relative Humidity Wind Chill (°C) Heat Index (°C) Pressure Precipitation (cm)
Air Dwpt 6 hour altimeter (cm) sea level (mb) 1 hr 3 hr 6 hr
Max. Min.
06 02:15 Calm 11.27 Fair CLR 20 20 100% 75.84 0.0
06 01:55 Calm 8.05 Fog/Mist CLR 21 21 100% 75.84 0.0
06 01:35 Calm 11.27 Fair CLR 21 21 100% 75.84 0.0
06 01:15 Calm 6.44 Fog/Mist SCT047 21 21 100% 75.87 0.0
06 00:55 Calm 8.05 Fog/Mist SCT042 BKN050 21 21 100% 75.9 0.0
06 00:35 Calm 3.22 Fog/Mist SCT003 BKN043 21 21 100% 75.9 0.0
06 00:15 N 6 2.82 Fog/Mist VV007 21 21 100% 75.9 0.0
05 23:55 Calm 4.83 Fog/Mist CLR 21 21 100% 75.9 0.0
05 23:35 Calm 8.05 Fog/Mist CLR 21 21 100% 75.9 0.0
05 23:15 Calm 16.09 Partly Cloudy SCT048 SCT050 SCT090 22 22 100% 75.9 0.0
05 22:55 Calm 8.05 Fog/Mist SCT048 BKN050 21 21 100% 75.92 0.0
05 22:35 Calm 11.27 Overcast OVC050 22 22 100% 75.92 0.0
05 22:15 Calm 8.05 Fog/Mist BKN050 21 21 100% 75.9 0.0
05 21:55 Calm 11.27 Partly Cloudy SCT050 SCT060 22 22 100% 75.9 0.0
05 21:35 Calm 11.27 Partly Cloudy SCT049 SCT060 22 22 100% 75.87 0.0
05 21:15 Calm 16.09 Mostly Cloudy SCT049 BKN060 BKN100 22 22 100% 75.87 0.0
05 20:55 Calm 16.09 Mostly Cloudy SCT046 BKN060 22 22 100% 75.87 0.0
05 20:35 Calm 16.09 Fair CLR 22 22 100% 75.84 0.0
05 20:15 Calm 16.09 Fair CLR 23 23 100% 75.79 0.0
05 19:55 Calm 16.09 Fair CLR 23 23 100% 75.79 0.0
05 19:35 Calm 16.09 Fair CLR 23 23 100% 75.77 0.0
05 19:15 NE 6 16.09 Fair CLR 23 23 100% 75.77 0.0
05 18:55 E 6 16.09 Fair CLR 23 23 100% 75.77 0.0
05 18:35 NE 6 16.09 Fair CLR 23 23 100% 75.77 0.0
05 18:15 NE 7 16.09 Mostly Cloudy SCT044 BKN050 BKN090 23 23 100% 75.77 0.0
05 17:55 NE 19 G 31 16.09 Overcast SCT036 BKN044 OVC050 23 23 100% 75.77 0.0
05 17:35 N 13 16.09 Mostly Cloudy BKN050 28 26 89% 34 75.72 0.0
05 17:15 Calm 16.09 Partly Cloudy SCT090 SCT110 29 26 84% 36 75.67 0.0
05 16:55 Calm 16.09 Overcast OVC100 28 27 94% 35 75.72 0.0
05 16:35 Calm 16.09 Mostly Cloudy BKN100 29 25 79% 35 75.72 0.0
05 16:15 Calm 16.09 Fair CLR 29 25 79% 35 75.72 0.0
05 15:55 Calm 16.09 Fair CLR 30 25 75% 36 75.72 0.0
05 13:55 NE 9 16.09 Mostly Cloudy SCT042 BKN090 30 25 75% 36 75.84 0.0
05 13:35 Calm 16.09 Partly Cloudy SCT090 30 25 75% 36 75.84 0.0
05 13:15 E 6 16.09 Fair CLR 30 25 75% 36 75.87 0.0
05 12:55 NE 11 16.09 Fair CLR 30 25 75% 36 75.87 0.0
05 12:35 N 9 16.09 Partly Cloudy SCT034 30 25 75% 36 75.87 0.0
05 12:15 Calm 16.09 Fair CLR 29 25 79% 35 75.9 0.0
05 11:55 NE 9 16.09 Fair CLR 29 26 84% 36 75.9 0.0
05 11:35 NE 9 16.09 Fair CLR 28 26 89% 34 75.92 0.0
05 11:15 N 7 16.09 Fair CLR 28 26 89% 34 75.95 0.0
05 10:55 Calm 16.09 Fair CLR 28 26 89% 34 75.92 0.0
05 10:35 Calm 16.09 Fair CLR 27 26 94% 31 75.9 0.0
05 10:15 Calm 16.09 Fair CLR 26 26 100% 28 75.9 0.0
05 09:55 Calm 16.09 Fair CLR 26 26 100% 28 75.9 0.0
05 09:35 W 6 16.09 Fair CLR 25 25 100% 25 75.9 0.0
05 09:15 Calm 16.09 Fair CLR 24 24 100% 23 75.9 0.0
05 08:55 W 6 16.09 Fair CLR 23 23 100% 75.9 0.0
05 08:35 Calm 16.09 Fair CLR 22 22 100% 75.9 0.0
05 08:15 Calm 16.09 Fair CLR 22 22 100% 75.9 0.0
05 07:55 Calm 16.09 Fair CLR 21 21 100% 75.9 0.0
05 07:35 Calm 6.44 Fog/Mist CLR 20 20 100% 75.87 0.0
05 07:15 Calm 8.05 Fog/Mist CLR 20 20 100% 75.84 0.0
05 06:55 Calm 6.44 Fog/Mist CLR 20 20 100% 75.84 0.0
05 06:35 Calm 16.09 Fair CLR 21 21 100% 75.84 0.0
05 06:15 Calm 16.09 Fair CLR 21 21 100% 75.84 0.0
05 05:55 W 6 16.09 Fair CLR 21 21 100% 75.84 0.0
05 05:35 Calm 16.09 Fair CLR 21 21 100% 75.84 0.0
05 05:15 W 6 16.09 Fair CLR 21 21 100% 75.84 0.0
05 04:55 W 7 16.09 Fair CLR 21 21 100% 75.87 0.0
05 04:35 Calm 16.09 Partly Cloudy SCT080 21 21 100% 75.87 0.0
05 04:15 Calm 16.09 Partly Cloudy SCT080 21 21 100% 75.9 0.0
05 03:55 Calm 16.09 Partly Cloudy SCT090 21 21 100% 75.9 0.0
05 03:35 Calm 16.09 Overcast OVC080 21 21 100% 75.9 0.0
05 03:15 Calm 16.09 Mostly Cloudy BKN080 21 21 100% 75.92 0.0
05 02:55 Calm 16.09 Mostly Cloudy BKN080 21 21 100% 75.9 0.0
05 02:35 W 6 16.09 Fair CLR 21 21 100% 75.92 0.0
05 02:15 W 7 16.09 Fair CLR 21 21 100% 75.95 0.0
05 01:55 W 7 16.09 Fair CLR 21 21 100% 75.97 0.0
05 01:35 W 9 16.09 Fair CLR 21 21 100% 76 0.0
05 01:15 W 7 16.09 Fair CLR 21 21 100% 76.02 0.0
05 00:55 SW 9 16.09 Fair CLR 21 21 100% 76.05 0.0
05 00:35 SW 13 16.09 Partly Cloudy SCT008 21 21 100% 76.07 0.0
05 00:15 SW 13 16.09 Partly Cloudy SCT008 21 21 100% 76.07 0.0
04 23:55 W 7 16.09 Fair CLR 20 20 100% 76.07 0.0
04 23:35 SW 7 16.09 Fair CLR 21 21 100% 76.05 0.0
04 23:15 S 9 16.09 Fair CLR 20 20 100% 76 0.0
04 22:55 S 11 16.09 Fair CLR 20 20 100% 76.05 0.0
04 22:35 Calm 11.27 Fair CLR 20 20 100% 76.05 0.0
04 22:15 Calm 16.09 Fair CLR 21 21 100% 76.07 0.0
04 21:55 S 15 16.09 Fair CLR 20 20 100% 76.1 0.0
04 21:35 S 13 16.09 Partly Cloudy SCT005 20 20 100% 76.15 0.0
04 21:15 S 9 16.09 Light Rain BKN005 BKN028 OVC080 21 21 100% 76.17 0.0
04 20:55 S 11 6.44 Rain NULL 21 21 100% 76.25 0.0 0.18
04 20:35 N 24 G 30 16.09 Mostly Cloudy SCT004 SCT017 BKN043 21 21 100% 76.35 0.0 0.03
04 20:15 E 11 16.09 Light Rain SCT004 SCT016 BKN055 21 21 100% 76.1 0.0 0.03
04 20:00 SE 15 0.00 NULL NULL 21 21 100% 76.1 0.0
04 19:30 N 17 G 26 16.09 Mostly Cloudy SCT014 SCT043 BKN049 22 22 100% 76.1 0.0
04 19:15 E 13 G 26 16.09 Partly Cloudy SCT036 SCT049 SCT075 23 23 100% 75.95 0.0
04 18:55 E 13 G 33 16.09 Mostly Cloudy SCT028 BKN035 BKN050 25 25 100% 25 76 0.0
04 18:35 NE 15 16.09 Partly Cloudy SCT060 SCT070 SCT090 26 26 100% 28 75.95 0.0
04 18:15 S 15 16.09 Light Rain SCT021 SCT050 BKN065 25 25 100% 25 75.87 0.0
04 17:55 E 9 2.82 Heavy Rain NULL 25 25 100% 25 75.95 0.0 0.48
04 17:35 N 6 16.09 Light Rain BKN080 29 25 79% 35 75.9 0.0
04 17:15 S 6 16.09 Partly Cloudy SCT080 30 24 70% 35 75.84 0.0
04 16:55 S 13 16.09 Fair CLR 31 25 70% 38 75.84 0.0
04 16:35 S 17 16.09 Fair CLR 33 26 67% 42 75.87 0.0
04 16:15 S 13 16.09 Partly Cloudy SCT110 33 25 63% 41 75.87 0.0
04 15:55 S 17 16.09 Partly Cloudy SCT065 35 27 63% 47 75.9 0.0
04 15:35 SW 24 G 30 16.09 Partly Cloudy SCT065 35 26 60% 45 75.92 0.0
04 15:15 SW 17 16.09 Fair CLR 36 26 56% 46 75.95 0.0
04 14:55 SW 9 16.09 Partly Cloudy SCT075 SCT110 35 26 60% 45 75.97 0.0
04 14:35 SW 11 G 26 16.09 Partly Cloudy SCT075 35 27 63% 47 76.02 0.0
04 14:15 SW 15 16.09 Fair CLR 35 27 63% 47 76.02 0.0
04 13:55 SW 13 16.09 Fair CLR 35 28 67% 49 76.05 0.0
04 13:35 SW 9 16.09 Fair CLR 35 27 63% 47 76.05 0.0
04 13:15 SW 7 16.09 Fair CLR 33 27 71% 44 76.07 0.0
04 12:55 SW 9 16.09 Fair CLR 33 27 71% 44 76.1 0.0
04 12:35 SW 11 16.09 Fair CLR 33 27 71% 44 76.1 0.0
04 12:15 SW 13 16.09 Fair CLR 32 27 75% 42 76.12 0.0
04 11:55 SW 11 16.09 Fair CLR 32 27 75% 42 76.12 0.0
04 11:35 SW 11 16.09 Fair CLR 31 27 79% 41 76.15 0.0
04 11:15 SW 13 16.09 Fair CLR 31 27 79% 41 76.15 0.0
04 10:55 SW 11 16.09 Fair CLR 30 27 84% 39 76.17 0.0
04 10:35 SW 11 16.09 Fair CLR 30 26 79% 37 76.15 0.0
04 10:15 SW 9 16.09 Fair CLR 29 26 84% 36 76.15 0.0
04 09:55 SW 15 16.09 Fair CLR 28 27 94% 35 76.15 0.0
04 09:35 SW 13 16.09 Fair CLR 27 26 94% 31 76.15 0.0
04 09:15 SW 13 16.09 Fair CLR 27 26 94% 31 76.15 0.0
04 08:55 SW 11 16.09 Fair CLR 26 26 100% 28 76.17 0.0
04 08:35 SW 11 16.09 Fair CLR 25 25 100% 25 76.17 0.0
04 08:15 SW 11 16.09 Fair CLR 24 24 100% 23 76.17 0.0
04 07:55 SW 9 16.09 Fair CLR 23 23 100% 76.17 0.0
04 07:35 SW 11 16.09 Fair CLR 23 23 100% 76.17 0.0
04 07:15 SW 9 16.09 Fair CLR 23 23 100% 76.17 0.0
04 06:55 SW 9 16.09 Fair CLR 23 23 100% 76.15 0.0
04 06:35 SW 7 16.09 Fair CLR 23 23 100% 76.15 0.0
04 06:15 SW 11 16.09 Fair CLR 23 23 100% 76.15 0.0
04 05:55 SW 7 16.09 Fair CLR 23 23 100% 76.15 0.0
04 05:35 SW 9 16.09 Fair CLR 23 23 100% 76.15 0.0
04 05:15 SW 11 16.09 Fair CLR 23 23 100% 76.15 0.0
04 04:55 SW 9 16.09 Fair CLR 23 23 100% 76.12 0.0
04 04:35 SW 9 16.09 Fair CLR 23 23 100% 76.12 0.0
04 04:15 SW 11 16.09 Fair CLR 24 24 100% 23 76.12 0.0
04 03:55 SW 9 16.09 Fair CLR 24 24 100% 23 76.12 0.0
04 03:35 SW 7 16.09 Fair CLR 25 25 100% 25 76.12 0.0
04 03:15 SW 11 16.09 Fair CLR 25 25 100% 25 76.1 0.0
04 02:55 SW 13 16.09 Fair CLR 25 25 100% 25 76.12 0.0
04 02:35 SW 15 16.09 Fair CLR 25 25 100% 25 76.15 0.0
04 02:15 SW 11 16.09 Fair CLR 25 25 100% 25 76.15 0.0
04 01:55 SW 11 16.09 Fair CLR 25 25 100% 25 76.17 0.0
04 01:35 SW 11 16.09 Fair CLR 26 26 100% 28 76.2 0.0
04 01:15 SW 11 16.09 Fair CLR 26 26 100% 28 76.23 0.0
04 00:55 SW 9 16.09 Fair CLR 26 26 100% 28 76.23 0.0
04 00:35 SW 9 16.09 Fair CLR 26 26 100% 28 76.2 0.0
04 00:15 SW 11 16.09 Fair CLR 26 26 100% 28 76.2 0.0
03 23:55 S 9 16.09 Fair CLR 26 26 100% 28 76.2 0.0
03 23:35 S 11 16.09 Fair CLR 26 26 100% 28 76.2 0.0
03 23:15 S 9 16.09 Fair CLR 26 26 100% 28 76.2 0.0
03 22:55 S 9 16.09 Fair CLR 27 26 94% 31 76.2 0.0
03 22:35 S 7 16.09 Partly Cloudy SCT070 26 26 100% 28 76.2 0.0
03 22:15 SW 6 16.09 Mostly Cloudy BKN070 27 26 94% 31 76.2 0.0
03 21:55 Calm 16.09 Mostly Cloudy BKN070 26 26 100% 28 76.2 0.0
03 21:35 Calm 16.09 Partly Cloudy SCT070 26 26 100% 28 76.2 0.0
03 21:15 Calm 16.09 Fair CLR 26 26 100% 28 76.17 0.0
03 20:55 Calm 16.09 Fair CLR 27 26 94% 31 76.15 0.0
03 20:35 Calm 16.09 Fair CLR 27 26 94% 31 76.1 0.0
03 20:15 Calm 16.09 Fair CLR 28 26 89% 34 76.1 0.0
03 19:55 SW 6 16.09 Fair CLR 28 26 89% 34 76.07 0.0
03 19:35 S 6 16.09 Fair CLR 29 26 84% 36 76.07 0.0
03 19:15 Calm 16.09 Partly Cloudy SCT080 30 27 84% 39 76.07 0.0
03 18:55 Calm 16.09 Partly Cloudy SCT080 31 27 79% 41 76.05 0.0
03 18:35 Calm 16.09 Fair CLR 31 28 84% 42 76.07 0.0
03 18:15 Calm 16.09 Fair CLR 32 28 79% 44 76.07 0.0
03 17:55 SW 7 16.09 Fair CLR 33 26 67% 42 76.07 0.0
03 17:35 SW 9 16.09 Fair CLR 35 25 56% 43 76.07 0.0
03 17:15 SW 9 16.09 Partly Cloudy SCT095 35 25 56% 43 76.07 0.0
03 16:55 SW 7 16.09 Fair CLR 35 26 60% 45 76.1 0.0
03 16:35 SW 9 16.09 Fair CLR 35 26 60% 45 76.1 0.0
03 16:15 SW 9 16.09 Partly Cloudy SCT100 35 25 56% 43 76.12 0.0
03 15:55 SW 9 16.09 Partly Cloudy SCT100 35 26 60% 45 76.15 0.0
03 15:35 Calm 16.09 Fair CLR 35 26 60% 45 76.17 0.0
03 15:15 S 6 16.09 Fair CLR 35 26 60% 45 76.17 0.0
03 14:55 S 7 16.09 Fair CLR 35 26 60% 45 76.17 0.0
03 14:35 S 9 16.09 Fair CLR 35 26 60% 45 76.2 0.0
03 14:15 S 7 16.09 Fair CLR 34 26 63% 43 76.23 0.0
03 13:55 S 9 16.09 Fair CLR 34 26 63% 43 76.23 0.0
03 13:35 S 11 16.09 Fair CLR 33 27 71% 44 76.23 0.0
03 13:15 SW 7 16.09 Fair CLR 33 27 71% 44 76.28 0.0
03 12:55 SW 7 16.09 Fair CLR 33 27 71% 44 76.3 0.0
03 12:35 S 9 16.09 Fair CLR 32 27 75% 42 76.3 0.0
03 12:15 SW 7 16.09 Fair CLR 32 27 75% 42 76.3 0.0
03 11:55 SW 6 16.09 Fair CLR 31 27 79% 41 76.33 0.0
03 11:35 Calm 16.09 Fair CLR 30 28 89% 40 76.33 0.0
03 11:15 SW 6 16.09 Fair CLR 29 27 89% 37 76.33 0.0
03 10:55 Calm 16.09 Fair CLR 28 27 94% 35 76.33 0.0
03 10:35 Calm 16.09 Fair CLR 27 27 100% 32 76.33 0.0
03 10:15 W 7 16.09 Fair CLR 27 27 100% 32 76.33 0.0
03 09:55 Calm 16.09 Fair CLR 26 26 100% 28 76.33 0.0
03 09:35 Calm 16.09 Fair CLR 25 25 100% 25 76.33 0.0
03 09:15 Calm 16.09 Fair CLR 24 24 100% 23 76.33 0.0
03 08:55 Calm 16.09 Fair CLR 23 23 100% 76.33 0.0
03 08:35 Calm 16.09 Fair CLR 22 22 100% 76.33 0.0
03 08:15 Calm 16.09 Fair CLR 21 21 100% 76.35 0.0
03 07:55 Calm 11.27 Fair CLR 21 21 100% 76.33 0.0
03 07:35 Calm 11.27 Fair CLR 20 20 100% 76.3 0.0
03 07:15 Calm 11.27 Fair CLR 20 20 100% 76.3 0.0
03 06:55 Calm 4.02 Fog/Mist CLR 20 20 100% 76.28 0.0
03 06:35 Calm 4.83 Fog/Mist CLR 20 20 100% 76.28 0.0
03 06:15 Calm 2.01 Fog/Mist VV007 20 20 100% 76.28 0.0
03 05:55 Calm 4.02 Fog/Mist CLR 20 20 100% 76.28 0.0
03 05:35 Calm 4.02 Fog/Mist CLR 20 20 100% 76.28 0.0
03 05:15 Calm 6.44 Fog/Mist CLR 20 20 100% 76.28 0.0
03 04:55 Calm 8.05 Fog/Mist CLR 20 20 100% 76.25 0.0
03 04:35 Calm 8.05 Fog/Mist CLR 20 20 100% 76.25 0.0
03 04:15 Calm 4.83 Fog/Mist CLR 20 20 100% 76.25 0.0
03 03:55 Calm 8.05 Fog/Mist CLR 20 20 100% 76.25 0.0
03 03:35 Calm 3.22 Fog/Mist CLR 21 21 100% 76.23 0.0
03 03:15 Calm 3.22 Fog/Mist CLR 20 20 100% 76.25 0.0
03 02:55 Calm 3.22 Fog/Mist CLR 21 21 100% 76.25 0.0
03 02:35 Calm 11.27 Fair CLR 21 21 100% 76.25 0.0
Date Time (edt) Wind (kph) Vis. (km) Weather Sky Cond. Air Dwpt Max. Min. Relative Humidity Wind Chill (°C) Heat Index (°C) altimeter (cm) sea level (mb) 1 hr 3 hr 6 hr
6 hour
Temperature (ºC) Pressure Precipitation (cm)